LELN/LEN METAR and TAF weather

Enter ICAO airport designator
Station Type Date Time Source
LELN METAR 2019/06/18 15:00 UTC NOAA

LELN 181500Z 20020KT 170V230 9999 FEW042 SCT050 21/08 Q1013


Station Type Date Time Source
LELN Decoded METAR 2019/06/18 15:00 UTC NOAA

Leon / Virgen Del Camino, Spain (LELN) 42-35N 005-39W 914M
Jun 18, 2019 - 11:00 AM EDT / 2019.06.18 1500 UTC
Wind: from the SSW (200 degrees) at 23 MPH (20 KT) (direction variable):0
Visibility: greater than 7 mile(s):0
Sky conditions: partly cloudy
Temperature: 69 F (21 C)
Dew Point: 46 F (8 C)
Relative Humidity: 43%
Pressure (altimeter): 29.91 in. Hg (1013 hPa)
ob: LELN 181500Z 20020KT 170V230 9999 FEW042 SCT050 21/08 Q1013
cycle: 15

Station Type Date Time Source
LELN TAF 2018/03/28 12:27 UTC NOAA

TAF LELN 281100Z 2812/2824 27015KT CAVOK
TEMPO 2814/2821 27015G26KT
BECMG 2822/2824 31010KT PROB40
TEMPO 2815/2824 RA BKN030

Example: see airport list